Time;durP1;ratioP1;P1;durP2;ratioP2;P2;SDS_P1;SDS_P2;PMS_P1;PMS_P2;Temp;Humidity;BMP_temperature;BMP_pressure;BME280_temperature;BME280_humidity;BME280_pressure;Samples;Min_cycle;Max_cycle;Signal;HPM_P1;HPM_P2
2022/12/11 00:02:53;;;;;;;0.68;0.68;;;;;;;8.88;69.77;98439.72;18392602;32;20108;-60
2022/12/11 00:12:58;;;;;;;0.40;0.40;;;;;;;8.80;69.73;98425.19;18393838;32;20846;-60
2022/12/11 00:23:01;;;;;;;0.70;0.70;;;;;;;8.65;69.90;98403.91;18393896;32;20173;-60
2022/12/11 00:33:05;;;;;;;0.50;0.50;;;;;;;8.36;70.70;98379.47;18393041;32;20121;-60
2022/12/11 00:43:08;;;;;;;0.62;0.62;;;;;;;8.65;69.73;98382.22;18392081;32;20153;-60
2022/12/11 00:53:13;;;;;;;1.98;1.87;;;;;;;8.69;69.10;98396.88;18391921;32;20112;-60
2022/12/11 01:03:17;;;;;;;0.40;0.40;;;;;;;8.56;69.17;98391.97;18390070;32;20101;-59
2022/12/11 01:13:21;;;;;;;0.50;0.50;;;;;;;8.71;68.69;98385.50;18392382;32;20109;-60
2022/12/11 01:23:25;;;;;;;0.62;0.62;;;;;;;8.80;68.56;98386.16;18390719;32;20192;-60
2022/12/11 01:33:30;;;;;;;1.17;1.10;;;;;;;8.67;67.86;98385.63;18389232;32;20416;-60
2022/12/11 01:43:33;;;;;;;0.90;0.82;;;;;;;8.44;67.18;98393.16;18388519;32;20124;-60
2022/12/11 01:53:39;;;;;;;0.85;0.85;;;;;;;8.03;67.83;98403.69;18388517;32;20120;-60
2022/12/11 02:03:43;;;;;;;0.50;0.50;;;;;;;7.72;67.89;98398.34;18388149;32;20124;-60
2022/12/11 02:13:53;;;;;;;0.57;0.57;;;;;;;7.73;67.14;98402.63;18392134;32;20105;-59
2022/12/11 02:24:08;;;;;;;0.70;0.70;;;;;;;7.66;67.53;98412.31;18395793;32;20104;-59
2022/12/11 02:34:17;;;;;;;0.50;0.50;;;;;;;7.57;67.60;98410.75;18394650;32;20156;-60
2022/12/11 02:44:24;;;;;;;0.50;0.50;;;;;;;7.40;67.17;98415.47;18394401;32;20089;-60
2022/12/11 02:54:32;;;;;;;0.60;0.60;;;;;;;7.37;66.34;98408.63;18395131;32;20358;-59
2022/12/11 03:04:36;;;;;;;1.00;0.90;;;;;;;7.05;67.08;98398.00;18393091;32;20219;-59
2022/12/11 03:14:41;;;;;;;0.50;0.50;;;;;;;6.78;67.15;98394.19;18394634;32;20132;-59
2022/12/11 03:24:47;;;;;;;0.60;0.60;;;;;;;6.71;67.08;98393.47;18403419;32;20477;-58
2022/12/11 03:34:54;;;;;;;0.60;0.60;;;;;;;6.47;66.74;98385.25;18434202;32;20369;-58
2022/12/11 03:45:01;;;;;;;0.40;0.40;;;;;;;6.17;67.99;98382.34;18433991;32;20089;-59
2022/12/11 03:55:07;;;;;;;0.60;0.60;;;;;;;6.19;67.15;98371.91;18433581;32;20141;-59
2022/12/11 04:05:11;;;;;;;0.55;0.55;;;;;;;6.48;66.77;98384.38;18432394;32;20120;-60
2022/12/11 04:15:16;;;;;;;0.60;0.60;;;;;;;6.32;67.08;98385.53;18433504;32;20108;-60
2022/12/11 04:25:19;;;;;;;2.60;1.02;;;;;;;6.49;67.21;98388.69;18433381;32;20120;-60
2022/12/11 04:35:24;;;;;;;0.50;0.50;;;;;;;6.39;67.38;98394.91;18431637;32;20445;-60
2022/12/11 04:45:27;;;;;;;0.40;0.40;;;;;;;6.19;68.06;98403.88;18433804;32;20096;-60
2022/12/11 04:55:31;;;;;;;0.70;0.70;;;;;;;6.19;68.20;98423.75;18432365;32;20140;-60
2022/12/11 05:05:35;;;;;;;10.63;1.73;;;;;;;6.17;67.32;98430.69;18432211;32;20119;-60
2022/12/11 05:15:40;;;;;;;0.70;0.70;;;;;;;6.35;67.20;98447.66;18431445;32;20093;-60
2022/12/11 05:25:44;;;;;;;0.50;0.50;;;;;;;5.81;67.77;98464.88;18432437;32;20115;-60
2022/12/11 05:35:49;;;;;;;0.85;0.85;;;;;;;5.81;68.03;98475.22;18430134;32;20084;-60
2022/12/11 05:45:52;;;;;;;0.57;0.57;;;;;;;5.60;67.21;98471.19;18429474;32;20147;-60
2022/12/11 05:56:01;;;;;;;0.50;0.50;;;;;;;5.40;68.18;98472.28;18429569;32;20150;-60
2022/12/11 06:06:05;;;;;;;0.50;0.50;;;;;;;5.41;67.00;98486.94;18429076;32;20095;-60
2022/12/11 06:16:10;;;;;;;0.57;0.57;;;;;;;5.26;68.25;98486.25;18428613;32;20117;-60
2022/12/11 06:26:14;;;;;;;0.50;0.50;;;;;;;5.45;66.58;98498.13;18429242;32;20146;-59
2022/12/11 06:36:20;;;;;;;0.60;0.60;;;;;;;5.20;67.80;98535.47;18427462;32;20136;-60
2022/12/11 06:46:23;;;;;;;0.70;0.70;;;;;;;5.89;65.57;98558.84;18426874;32;20085;-60
2022/12/11 06:56:28;;;;;;;1.33;1.33;;;;;;;5.81;65.93;98568.44;18428343;32;20111;-60
2022/12/11 07:06:31;;;;;;;0.32;0.32;;;;;;;4.70;69.50;98597.09;18427589;32;20120;-60
2022/12/11 07:16:36;;;;;;;1.35;1.35;;;;;;;5.76;66.16;98614.22;18434663;32;20149;-60
2022/12/11 07:26:39;;;;;;;0.52;0.52;;;;;;;5.65;66.86;98635.91;18453995;32;20096;-61
2022/12/11 07:36:44;;;;;;;0.43;0.43;;;;;;;5.87;65.52;98638.25;18436638;32;20089;-60
2022/12/11 07:46:47;;;;;;;0.70;0.70;;;;;;;5.83;65.13;98657.31;18466055;32;20411;-60
2022/12/11 07:56:52;;;;;;;0.70;0.70;;;;;;;6.06;65.39;98672.63;18497797;32;20128;-60
2022/12/11 08:06:56;;;;;;;0.60;0.60;;;;;;;6.32;64.86;98663.69;18496484;32;20103;-60
2022/12/11 08:17:01;;;;;;;0.60;0.60;;;;;;;6.04;63.92;98691.66;18492796;32;20152;-60
2022/12/11 08:27:05;;;;;;;0.60;0.60;;;;;;;6.46;63.61;98699.81;18496860;32;20092;-60
2022/12/11 08:37:11;;;;;;;0.70;0.70;;;;;;;5.88;62.12;98722.00;18497523;32;20111;-60
2022/12/11 08:47:15;;;;;;;0.57;0.57;;;;;;;5.16;64.59;98745.88;18496886;32;20096;-60
2022/12/11 08:57:21;;;;;;;0.50;0.50;;;;;;;6.01;61.46;98753.84;18496550;32;20421;-60
2022/12/11 09:07:25;;;;;;;0.70;0.70;;;;;;;6.30;59.45;98787.22;18496482;32;20119;-60
2022/12/11 09:17:29;;;;;;;0.60;0.60;;;;;;;6.18;61.65;98798.59;18495263;32;20469;-60
2022/12/11 09:27:34;;;;;;;0.60;0.60;;;;;;;6.02;61.53;98791.84;18494380;32;20092;-60
2022/12/11 09:37:40;;;;;;;0.77;0.75;;;;;;;6.15;61.05;98793.44;18415622;32;20366;-60
2022/12/11 09:47:45;;;;;;;0.55;0.55;;;;;;;5.91;60.94;98785.00;18443581;32;20376;-60
2022/12/11 09:57:55;;;;;;;0.60;0.60;;;;;;;5.77;60.94;98785.12;18424948;32;20103;-60
2022/12/11 10:08:05;;;;;;;0.50;0.50;;;;;;;5.61;61.58;98774.03;18427872;32;20112;-61
2022/12/11 10:18:13;;;;;;;1.10;1.10;;;;;;;6.15;60.66;98757.16;18420785;32;20224;-60
2022/12/11 10:28:18;;;;;;;0.70;0.70;;;;;;;6.06;59.98;98746.88;18425862;32;20150;-60
2022/12/11 10:38:27;;;;;;;0.68;0.68;;;;;;;5.84;58.80;98752.25;18435638;32;20150;-60
2022/12/11 10:48:30;;;;;;;0.55;0.55;;;;;;;5.50;59.59;98775.84;18459634;32;20377;-60
2022/12/11 10:58:49;;;;;;;0.60;0.60;;;;;;;5.51;59.06;98791.38;18469690;32;20373;-60
2022/12/11 11:08:54;;;;;;;0.60;0.60;;;;;;;5.69;58.54;98792.97;18452520;32;20787;-60
2022/12/11 11:18:59;;;;;;;0.60;0.60;;;;;;;5.50;58.18;98804.31;18465453;32;20450;-60
2022/12/11 11:29:02;;;;;;;1.90;1.77;;;;;;;5.72;57.78;98809.34;18467822;32;20393;-60
2022/12/11 11:39:23;;;;;;;0.47;0.47;;;;;;;5.94;57.90;98804.84;18454290;32;20101;-61
2022/12/11 11:49:36;;;;;;;0.60;0.60;;;;;;;6.09;56.49;98803.87;18471160;32;20111;-60
2022/12/11 11:59:44;;;;;;;0.65;0.65;;;;;;;5.84;56.94;98829.94;18434212;32;20089;-60
2022/12/11 12:09:53;;;;;;;0.50;0.50;;;;;;;6.00;55.54;98845.38;18433930;32;20433;-60
2022/12/11 12:20:04;;;;;;;0.60;0.60;;;;;;;6.07;56.53;98867.78;18464681;32;20370;-60
2022/12/11 12:30:10;;;;;;;0.50;0.50;;;;;;;6.31;56.49;98882.28;18454191;32;20117;-60
2022/12/11 12:40:29;;;;;;;0.70;0.70;;;;;;;6.19;56.17;98880.63;18462924;32;20722;-60
2022/12/11 12:50:37;;;;;;;0.60;0.60;;;;;;;6.06;55.54;98884.19;18458081;32;20429;-60
2022/12/11 13:00:43;;;;;;;0.60;0.60;;;;;;;6.30;56.27;98869.31;18478059;32;20092;-60
2022/12/11 13:10:46;;;;;;;0.60;0.60;;;;;;;6.25;55.16;98871.94;18466020;32;20073;-60
2022/12/11 13:20:52;;;;;;;0.95;0.95;;;;;;;5.96;55.77;98912.72;18436711;32;20107;-60
2022/12/11 13:31:07;;;;;;;1.52;1.42;;;;;;;6.07;55.33;98928.22;18457533;32;20119;-60
2022/12/11 13:41:12;;;;;;;0.50;0.50;;;;;;;6.16;55.23;98945.41;18473873;32;20111;-60
2022/12/11 13:51:17;;;;;;;0.40;0.40;;;;;;;6.29;55.24;98942.75;18474006;32;20136;-60
2022/12/11 14:01:26;;;;;;;0.62;0.62;;;;;;;6.57;55.43;98966.69;18494425;32;20120;-60
2022/12/11 14:11:35;;;;;;;0.75;0.75;;;;;;;6.47;54.81;98965.06;18497092;32;20097;-60
2022/12/11 14:21:39;;;;;;;0.60;0.60;;;;;;;6.47;53.73;98989.25;18495064;32;20136;-60
2022/12/11 14:31:44;;;;;;;0.57;0.57;;;;;;;6.06;54.95;98993.88;18499688;32;20407;-60
2022/12/11 14:41:52;;;;;;;22.45;2.35;;;;;;;6.23;54.04;99013.62;18501500;32;20107;-60
2022/12/11 14:51:55;;;;;;;1.05;1.05;;;;;;;5.85;54.84;99027.66;18501397;32;20092;-60
2022/12/11 15:02:02;;;;;;;1.58;1.52;;;;;;;5.69;54.63;99035.47;18498761;32;20088;-60
2022/12/11 15:12:10;;;;;;;3.50;1.90;;;;;;;5.50;54.82;99037.25;18499883;32;20081;-60
2022/12/11 15:22:16;;;;;;;0.60;0.60;;;;;;;5.21;55.86;99040.78;18498834;32;20561;-60
2022/12/11 15:32:20;;;;;;;0.50;0.50;;;;;;;5.32;56.13;99059.78;18499229;32;20099;-60
2022/12/11 15:42:27;;;;;;;0.70;0.70;;;;;;;5.53;55.21;99063.16;18498927;32;20112;-60
2022/12/11 15:52:33;;;;;;;2.25;2.05;;;;;;;5.29;56.04;99072.69;18477116;32;20110;-60
2022/12/11 16:02:38;;;;;;;0.52;0.52;;;;;;;5.01;55.37;99070.16;18370781;32;20477;-60
2022/12/11 16:12:42;;;;;;;0.60;0.60;;;;;;;4.94;55.98;99081.38;18459899;32;20160;-60
2022/12/11 16:22:46;;;;;;;0.80;0.80;;;;;;;5.03;55.03;99091.72;18469784;32;80687;-60
2022/12/11 16:32:50;;;;;;;0.60;0.60;;;;;;;4.99;55.59;99108.09;18451343;32;20112;-60
2022/12/11 16:42:54;;;;;;;0.70;0.70;;;;;;;5.24;54.28;99116.69;18428817;32;20148;-60
2022/12/11 16:52:58;;;;;;;0.50;0.50;;;;;;;4.94;54.76;99127.94;18430282;32;20381;-60
2022/12/11 17:03:02;;;;;;;0.65;0.65;;;;;;;5.18;53.41;99133.94;18445609;32;20089;-60
2022/12/11 17:13:06;;;;;;;0.55;0.55;;;;;;;5.29;51.92;99137.38;18485319;32;20098;-59
2022/12/11 17:23:12;;;;;;;0.77;0.77;;;;;;;5.19;51.97;99140.84;18365170;32;20108;-59
2022/12/11 17:33:16;;;;;;;0.50;0.50;;;;;;;4.01;55.76;99142.38;18364567;32;20116;-59
2022/12/11 17:43:21;;;;;;;0.80;0.80;;;;;;;4.84;53.60;99146.03;18362280;32;20142;-61
2022/12/11 17:53:25;;;;;;;0.70;0.70;;;;;;;5.03;53.30;99151.22;18375373;32;20434;-60
2022/12/11 18:03:29;;;;;;;0.70;0.70;;;;;;;4.47;55.67;99166.62;18415007;32;20101;-59
2022/12/11 18:13:33;;;;;;;0.50;0.50;;;;;;;4.99;53.70;99165.88;18412214;32;20377;-59
2022/12/11 18:23:38;;;;;;;0.60;0.60;;;;;;;5.21;53.69;99175.34;18366238;32;20123;-59
2022/12/11 18:33:43;;;;;;;0.60;0.60;;;;;;;4.18;55.12;99180.31;18459945;32;20092;-59
2022/12/11 18:43:48;;;;;;;1.12;1.10;;;;;;;4.30;57.50;99185.53;18468503;32;20374;-60
2022/12/11 18:53:52;;;;;;;0.62;0.62;;;;;;;4.08;53.12;99188.84;18469285;32;20100;-59
2022/12/11 19:03:58;;;;;;;0.70;0.70;;;;;;;4.29;55.37;99193.25;18470260;32;20118;-59
2022/12/11 19:14:08;;;;;;;0.77;0.77;;;;;;;4.50;54.03;99214.88;18494489;32;20140;-59
2022/12/11 19:24:15;;;;;;;0.70;0.70;;;;;;;4.02;55.00;99221.56;18449744;32;20115;-59
2022/12/11 19:34:18;;;;;;;0.70;0.70;;;;;;;4.05;54.88;99225.88;18417545;32;20133;-59
2022/12/11 19:44:23;;;;;;;0.73;0.73;;;;;;;4.09;54.89;99222.44;18384048;32;20446;-59
2022/12/11 19:54:26;;;;;;;0.60;0.60;;;;;;;4.20;54.92;99214.75;18366672;32;20112;-60
2022/12/11 20:04:33;;;;;;;0.62;0.62;;;;;;;3.91;55.28;99222.34;18422000;32;20425;-60
2022/12/11 20:14:38;;;;;;;0.70;0.70;;;;;;;4.37;53.76;99224.31;18446853;32;20111;-60
2022/12/11 20:24:43;;;;;;;0.60;0.60;;;;;;;4.17;53.93;99227.66;18448890;32;20097;-60
2022/12/11 20:34:46;;;;;;;0.50;0.50;;;;;;;4.55;53.80;99239.03;18426471;32;20462;-59
2022/12/11 20:44:51;;;;;;;0.68;0.68;;;;;;;4.47;54.11;99259.69;18443413;32;20089;-60
2022/12/11 20:54:54;;;;;;;1.73;1.62;;;;;;;4.58;54.05;99252.81;18384423;32;20119;-59
2022/12/11 21:04:59;;;;;;;0.70;0.70;;;;;;;4.25;54.85;99244.06;18418614;32;20093;-59
2022/12/11 21:15:02;;;;;;;0.50;0.50;;;;;;;4.06;55.48;99252.56;18443277;32;20376;-59
2022/12/11 21:25:08;;;;;;;0.50;0.50;;;;;;;4.04;56.18;99257.72;18493858;32;20080;-59
2022/12/11 21:35:13;;;;;;;0.57;0.57;;;;;;;3.62;56.84;99260.03;18433719;32;20097;-60
2022/12/11 21:45:18;;;;;;;0.60;0.60;;;;;;;4.26;55.18;99276.78;18361376;32;20149;-60
2022/12/11 21:55:41;;;;;;;0.68;0.68;;;;;;;4.11;55.94;99290.47;18388510;32;20109;-59
2022/12/11 22:05:46;;;;;;;0.50;0.50;;;;;;;4.14;56.35;99303.44;18411882;32;20124;-60
2022/12/11 22:15:51;;;;;;;0.60;0.60;;;;;;;3.94;56.99;99311.03;18452276;32;20132;-60
2022/12/11 22:25:55;;;;;;;0.50;0.50;;;;;;;3.97;56.60;99323.09;18490571;32;20105;-60
2022/12/11 22:36:00;;;;;;;0.65;0.65;;;;;;;3.97;56.36;99318.78;18497513;32;20104;-60
2022/12/11 22:46:04;;;;;;;0.80;0.80;;;;;;;3.81;57.03;99327.28;18497076;32;20494;-60
2022/12/11 22:56:09;;;;;;;0.60;0.60;;;;;;;4.10;56.38;99334.38;18497413;32;20382;-60
2022/12/11 23:06:17;;;;;;;0.60;0.60;;;;;;;4.29;56.80;99333.66;18497238;32;20112;-60
2022/12/11 23:16:20;;;;;;;0.43;0.43;;;;;;;4.10;57.77;99335.25;18496566;32;20088;-60
2022/12/11 23:26:27;;;;;;;0.60;0.60;;;;;;;3.55;60.44;99346.84;18496302;32;20148;-59
2022/12/11 23:36:30;;;;;;;0.60;0.60;;;;;;;3.31;59.26;99371.56;18495330;32;20358;-60
2022/12/11 23:46:34;;;;;;;0.60;0.60;;;;;;;3.84;58.05;99374.66;18495979;32;20101;-60
2022/12/11 23:56:38;;;;;;;0.55;0.55;;;;;;;3.40;59.57;99364.75;18496357;32;20092;-60
